sensor_id;sensor_type;location;lat;lon;timestamp;temperature;humidity
837;DHT22;400;53.550;9.932;2023-02-01T00:01:31;6.30;99.90
837;DHT22;400;53.550;9.932;2023-02-01T00:03:58;6.20;99.90
837;DHT22;400;53.550;9.932;2023-02-01T00:06:28;6.30;99.90
837;DHT22;400;53.550;9.932;2023-02-01T00:08:55;6.40;99.90
837;DHT22;400;53.550;9.932;2023-02-01T00:11:23;6.40;99.90
837;DHT22;400;53.550;9.932;2023-02-01T00:13:50;6.40;99.90
837;DHT22;400;53.550;9.932;2023-02-01T00:16:18;6.40;99.90
837;DHT22;400;53.550;9.932;2023-02-01T00:18:49;6.30;99.90
837;DHT22;400;53.550;9.932;2023-02-01T00:21:21;6.40;99.90
837;DHT22;400;53.550;9.932;2023-02-01T00:23:51;6.40;99.90
837;DHT22;400;53.550;9.932;2023-02-01T00:26:23;6.40;99.90
837;DHT22;400;53.550;9.932;2023-02-01T00:28:56;6.40;99.90
837;DHT22;400;53.550;9.932;2023-02-01T00:31:27;6.50;99.90
837;DHT22;400;53.550;9.932;2023-02-01T00:34:01;6.40;99.90
837;DHT22;400;53.550;9.932;2023-02-01T00:36:33;6.40;99.90
837;DHT22;400;53.550;9.932;2023-02-01T00:39:00;6.50;99.90
837;DHT22;400;53.550;9.932;2023-02-01T00:41:30;6.50;99.90
837;DHT22;400;53.550;9.932;2023-02-01T00:43:56;6.50;99.90
837;DHT22;400;53.550;9.932;2023-02-01T00:46:24;6.50;99.90
837;DHT22;400;53.550;9.932;2023-02-01T00:48:51;6.60;99.90
837;DHT22;400;53.550;9.932;2023-02-01T00:51:23;6.70;99.90
837;DHT22;400;53.550;9.932;2023-02-01T00:53:50;6.70;99.90
837;DHT22;400;53.550;9.932;2023-02-01T00:56:20;6.70;99.90
837;DHT22;400;53.550;9.932;2023-02-01T00:58:52;6.70;99.90
837;DHT22;400;53.550;9.932;2023-02-01T01:01:24;6.70;99.90
837;DHT22;400;53.550;9.932;2023-02-01T01:03:53;6.70;99.90
837;DHT22;400;53.550;9.932;2023-02-01T01:06:23;6.70;99.90
837;DHT22;400;53.550;9.932;2023-02-01T01:08:52;6.70;99.90
837;DHT22;400;53.550;9.932;2023-02-01T01:11:21;6.70;99.90
837;DHT22;400;53.550;9.932;2023-02-01T01:13:49;6.70;99.90
837;DHT22;400;53.550;9.932;2023-02-01T01:16:17;6.80;99.90
837;DHT22;400;53.550;9.932;2023-02-01T01:18:47;6.80;99.90
837;DHT22;400;53.550;9.932;2023-02-01T01:21:15;6.80;99.90
837;DHT22;400;53.550;9.932;2023-02-01T01:23:44;6.80;99.90
837;DHT22;400;53.550;9.932;2023-02-01T01:26:14;6.80;99.90
837;DHT22;400;53.550;9.932;2023-02-01T01:28:44;6.80;99.90
837;DHT22;400;53.550;9.932;2023-02-01T01:31:16;6.70;99.90
837;DHT22;400;53.550;9.932;2023-02-01T01:33:43;6.70;99.90
837;DHT22;400;53.550;9.932;2023-02-01T01:36:12;6.80;99.90
837;DHT22;400;53.550;9.932;2023-02-01T01:38:40;6.80;99.90
837;DHT22;400;53.550;9.932;2023-02-01T01:41:13;6.80;99.90
837;DHT22;400;53.550;9.932;2023-02-01T01:43:53;6.80;99.90
837;DHT22;400;53.550;9.932;2023-02-01T01:46:23;6.80;99.90
837;DHT22;400;53.550;9.932;2023-02-01T01:48:58;6.90;99.90
837;DHT22;400;53.550;9.932;2023-02-01T01:51:31;6.90;99.90
837;DHT22;400;53.550;9.932;2023-02-01T01:54:05;6.90;99.90
837;DHT22;400;53.550;9.932;2023-02-01T01:56:37;6.90;99.90
837;DHT22;400;53.550;9.932;2023-02-01T01:59:04;6.90;99.90
837;DHT22;400;53.550;9.932;2023-02-01T02:01:32;6.90;99.90
837;DHT22;400;53.550;9.932;2023-02-01T02:03:59;6.90;99.90
837;DHT22;400;53.550;9.932;2023-02-01T02:06:48;6.90;99.90
837;DHT22;400;53.550;9.932;2023-02-01T02:09:19;7.00;99.90
837;DHT22;400;53.550;9.932;2023-02-01T02:11:48;7.00;99.90
837;DHT22;400;53.550;9.932;2023-02-01T02:14:17;7.00;99.90
837;DHT22;400;53.550;9.932;2023-02-01T02:17:09;6.90;99.90
837;DHT22;400;53.550;9.932;2023-02-01T02:23:03;7.00;99.90
837;DHT22;400;53.550;9.932;2023-02-01T02:32:03;6.90;99.90
837;DHT22;400;53.550;9.932;2023-02-01T02:34:36;6.90;99.90
837;DHT22;400;53.550;9.932;2023-02-01T02:37:11;7.00;99.90
837;DHT22;400;53.550;9.932;2023-02-01T02:39:50;7.00;99.90
837;DHT22;400;53.550;9.932;2023-02-01T02:42:27;7.00;99.90
837;DHT22;400;53.550;9.932;2023-02-01T02:45:17;7.00;99.90
837;DHT22;400;53.550;9.932;2023-02-01T02:48:08;7.00;99.90
837;DHT22;400;53.550;9.932;2023-02-01T02:50:46;6.90;99.90
837;DHT22;400;53.550;9.932;2023-02-01T02:53:39;6.80;99.90
837;DHT22;400;53.550;9.932;2023-02-01T02:56:29;6.90;99.90
837;DHT22;400;53.550;9.932;2023-02-01T02:59:17;6.90;99.90
837;DHT22;400;53.550;9.932;2023-02-01T03:02:04;6.90;99.90
837;DHT22;400;53.550;9.932;2023-02-01T03:04:52;6.90;99.90
837;DHT22;400;53.550;9.932;2023-02-01T03:07:54;6.90;99.90
837;DHT22;400;53.550;9.932;2023-02-01T03:10:35;6.90;99.90
837;DHT22;400;53.550;9.932;2023-02-01T03:13:06;6.90;99.90
837;DHT22;400;53.550;9.932;2023-02-01T03:15:40;6.80;99.90
837;DHT22;400;53.550;9.932;2023-02-01T03:18:14;6.90;99.90
837;DHT22;400;53.550;9.932;2023-02-01T03:20:46;6.80;99.90
837;DHT22;400;53.550;9.932;2023-02-01T03:23:17;6.80;99.90
837;DHT22;400;53.550;9.932;2023-02-01T03:25:47;6.80;99.90
837;DHT22;400;53.550;9.932;2023-02-01T03:28:18;6.90;99.90
837;DHT22;400;53.550;9.932;2023-02-01T03:30:48;6.70;99.90
837;DHT22;400;53.550;9.932;2023-02-01T03:33:18;6.50;99.90
837;DHT22;400;53.550;9.932;2023-02-01T03:36:01;6.50;99.90
837;DHT22;400;53.550;9.932;2023-02-01T03:38:38;6.40;99.90
837;DHT22;400;53.550;9.932;2023-02-01T03:41:11;6.60;99.90
837;DHT22;400;53.550;9.932;2023-02-01T03:43:50;6.40;99.90
837;DHT22;400;53.550;9.932;2023-02-01T03:46:29;6.50;99.90
837;DHT22;400;53.550;9.932;2023-02-01T03:49:00;6.40;99.90
837;DHT22;400;53.550;9.932;2023-02-01T03:51:31;6.50;99.90
837;DHT22;400;53.550;9.932;2023-02-01T03:54:03;6.40;99.90
837;DHT22;400;53.550;9.932;2023-02-01T03:56:36;6.40;99.90
837;DHT22;400;53.550;9.932;2023-02-01T03:59:04;6.40;99.90
837;DHT22;400;53.550;9.932;2023-02-01T04:01:34;6.50;99.90
837;DHT22;400;53.550;9.932;2023-02-01T04:04:01;6.60;99.90
837;DHT22;400;53.550;9.932;2023-02-01T04:06:28;6.50;99.90
837;DHT22;400;53.550;9.932;2023-02-01T04:08:57;6.60;99.90
837;DHT22;400;53.550;9.932;2023-02-01T04:11:28;6.50;99.90
837;DHT22;400;53.550;9.932;2023-02-01T04:13:55;6.40;99.90
837;DHT22;400;53.550;9.932;2023-02-01T04:16:22;6.60;99.90
837;DHT22;400;53.550;9.932;2023-02-01T04:18:49;6.50;99.90
837;DHT22;400;53.550;9.932;2023-02-01T04:21:18;6.30;99.90
837;DHT22;400;53.550;9.932;2023-02-01T04:23:48;6.50;99.90
837;DHT22;400;53.550;9.932;2023-02-01T04:26:18;6.50;99.90
837;DHT22;400;53.550;9.932;2023-02-01T04:28:48;6.50;99.90
837;DHT22;400;53.550;9.932;2023-02-01T04:31:15;6.40;99.90
837;DHT22;400;53.550;9.932;2023-02-01T04:33:42;6.40;99.90
837;DHT22;400;53.550;9.932;2023-02-01T04:36:11;6.30;99.90
837;DHT22;400;53.550;9.932;2023-02-01T04:38:41;6.30;99.90
837;DHT22;400;53.550;9.932;2023-02-01T04:41:08;6.30;99.90
837;DHT22;400;53.550;9.932;2023-02-01T04:43:35;6.30;99.90
837;DHT22;400;53.550;9.932;2023-02-01T04:46:03;6.20;99.90
837;DHT22;400;53.550;9.932;2023-02-01T04:48:30;6.20;99.90
837;DHT22;400;53.550;9.932;2023-02-01T04:50:57;6.30;99.90
837;DHT22;400;53.550;9.932;2023-02-01T04:53:25;6.20;99.90
837;DHT22;400;53.550;9.932;2023-02-01T04:55:52;6.20;99.90
837;DHT22;400;53.550;9.932;2023-02-01T04:58:19;6.10;99.90
837;DHT22;400;53.550;9.932;2023-02-01T05:00:46;6.10;99.90
837;DHT22;400;53.550;9.932;2023-02-01T05:03:14;6.10;99.90
837;DHT22;400;53.550;9.932;2023-02-01T05:05:43;5.90;99.90
837;DHT22;400;53.550;9.932;2023-02-01T05:08:10;5.90;99.90
837;DHT22;400;53.550;9.932;2023-02-01T05:10:37;5.80;99.90
837;DHT22;400;53.550;9.932;2023-02-01T05:13:05;5.50;99.90
837;DHT22;400;53.550;9.932;2023-02-01T05:15:50;5.40;99.90
837;DHT22;400;53.550;9.932;2023-02-01T05:18:18;5.30;99.90
837;DHT22;400;53.550;9.932;2023-02-01T05:20:45;5.20;99.90
837;DHT22;400;53.550;9.932;2023-02-01T05:23:12;5.10;99.90
837;DHT22;400;53.550;9.932;2023-02-01T05:25:39;5.20;99.90
837;DHT22;400;53.550;9.932;2023-02-01T05:28:05;5.00;99.90
837;DHT22;400;53.550;9.932;2023-02-01T05:30:32;4.90;99.90
837;DHT22;400;53.550;9.932;2023-02-01T05:33:04;5.10;99.90
837;DHT22;400;53.550;9.932;2023-02-01T05:35:32;4.90;99.90
837;DHT22;400;53.550;9.932;2023-02-01T05:38:00;5.00;99.90
837;DHT22;400;53.550;9.932;2023-02-01T05:40:28;4.90;99.90
837;DHT22;400;53.550;9.932;2023-02-01T05:43:01;4.90;99.90
837;DHT22;400;53.550;9.932;2023-02-01T05:45:33;4.80;99.90
837;DHT22;400;53.550;9.932;2023-02-01T05:47:59;4.70;99.90
837;DHT22;400;53.550;9.932;2023-02-01T05:50:28;4.70;99.90
837;DHT22;400;53.550;9.932;2023-02-01T05:52:57;4.70;99.90
837;DHT22;400;53.550;9.932;2023-02-01T05:55:25;4.60;99.90
837;DHT22;400;53.550;9.932;2023-02-01T05:57:57;4.50;99.90
837;DHT22;400;53.550;9.932;2023-02-01T06:00:32;4.60;99.90
837;DHT22;400;53.550;9.932;2023-02-01T06:03:00;4.60;99.90
837;DHT22;400;53.550;9.932;2023-02-01T06:05:27;4.70;99.90
837;DHT22;400;53.550;9.932;2023-02-01T06:07:58;4.60;99.90
837;DHT22;400;53.550;9.932;2023-02-01T06:10:25;4.70;99.90
837;DHT22;400;53.550;9.932;2023-02-01T06:12:52;4.70;99.90
837;DHT22;400;53.550;9.932;2023-02-01T06:15:23;4.90;99.90
837;DHT22;400;53.550;9.932;2023-02-01T06:17:59;4.90;99.90
837;DHT22;400;53.550;9.932;2023-02-01T06:20:43;4.90;99.90
837;DHT22;400;53.550;9.932;2023-02-01T06:23:18;4.90;99.90
837;DHT22;400;53.550;9.932;2023-02-01T06:25:45;4.90;99.90
837;DHT22;400;53.550;9.932;2023-02-01T06:28:11;4.90;99.90
837;DHT22;400;53.550;9.932;2023-02-01T06:30:44;5.10;99.90
837;DHT22;400;53.550;9.932;2023-02-01T06:33:13;5.10;99.90
837;DHT22;400;53.550;9.932;2023-02-01T06:35:46;5.20;99.90
837;DHT22;400;53.550;9.932;2023-02-01T06:38:13;5.30;99.90
837;DHT22;400;53.550;9.932;2023-02-01T06:40:45;5.40;99.90
837;DHT22;400;53.550;9.932;2023-02-01T06:43:25;5.40;99.90
837;DHT22;400;53.550;9.932;2023-02-01T06:46:02;5.40;99.90
837;DHT22;400;53.550;9.932;2023-02-01T06:48:33;5.40;99.90
837;DHT22;400;53.550;9.932;2023-02-01T06:51:01;5.50;99.90
837;DHT22;400;53.550;9.932;2023-02-01T06:53:29;5.40;99.90
837;DHT22;400;53.550;9.932;2023-02-01T06:55:59;5.50;99.90
837;DHT22;400;53.550;9.932;2023-02-01T06:58:28;5.50;99.90
837;DHT22;400;53.550;9.932;2023-02-01T07:00:58;5.40;99.90
837;DHT22;400;53.550;9.932;2023-02-01T07:03:30;5.40;99.90
837;DHT22;400;53.550;9.932;2023-02-01T07:06:01;5.50;99.90
837;DHT22;400;53.550;9.932;2023-02-01T07:08:32;5.60;99.90
837;DHT22;400;53.550;9.932;2023-02-01T07:11:07;5.70;99.90
837;DHT22;400;53.550;9.932;2023-02-01T07:13:38;5.60;99.90
837;DHT22;400;53.550;9.932;2023-02-01T07:16:12;5.60;99.90
837;DHT22;400;53.550;9.932;2023-02-01T07:18:47;5.60;99.90
837;DHT22;400;53.550;9.932;2023-02-01T07:21:16;5.80;99.90
837;DHT22;400;53.550;9.932;2023-02-01T07:23:43;5.60;99.90
837;DHT22;400;53.550;9.932;2023-02-01T07:26:13;5.70;99.90
837;DHT22;400;53.550;9.932;2023-02-01T07:28:41;5.70;99.90
837;DHT22;400;53.550;9.932;2023-02-01T07:31:09;5.90;99.90
837;DHT22;400;53.550;9.932;2023-02-01T07:33:36;5.80;99.90
837;DHT22;400;53.550;9.932;2023-02-01T07:36:05;5.90;99.90
837;DHT22;400;53.550;9.932;2023-02-01T07:38:34;5.90;99.90
837;DHT22;400;53.550;9.932;2023-02-01T07:41:12;6.00;99.90
837;DHT22;400;53.550;9.932;2023-02-01T07:43:43;6.00;99.90
837;DHT22;400;53.550;9.932;2023-02-01T07:46:10;6.00;99.90
837;DHT22;400;53.550;9.932;2023-02-01T07:48:38;6.00;99.90
837;DHT22;400;53.550;9.932;2023-02-01T07:51:12;6.10;99.90
837;DHT22;400;53.550;9.932;2023-02-01T07:53:40;6.10;99.90
837;DHT22;400;53.550;9.932;2023-02-01T07:56:17;6.10;99.90
837;DHT22;400;53.550;9.932;2023-02-01T07:58:49;6.10;99.90
837;DHT22;400;53.550;9.932;2023-02-01T08:01:38;6.20;99.90
837;DHT22;400;53.550;9.932;2023-02-01T08:04:11;6.20;99.90
837;DHT22;400;53.550;9.932;2023-02-01T08:06:45;6.30;99.90
837;DHT22;400;53.550;9.932;2023-02-01T08:09:15;6.30;99.90
837;DHT22;400;53.550;9.932;2023-02-01T08:11:43;6.40;99.90
837;DHT22;400;53.550;9.932;2023-02-01T08:14:10;6.30;99.90
837;DHT22;400;53.550;9.932;2023-02-01T08:16:43;6.30;99.90
837;DHT22;400;53.550;9.932;2023-02-01T08:19:17;6.40;99.90
837;DHT22;400;53.550;9.932;2023-02-01T08:21:47;6.30;99.90
837;DHT22;400;53.550;9.932;2023-02-01T08:24:15;6.50;99.90
837;DHT22;400;53.550;9.932;2023-02-01T08:26:45;6.50;99.90
837;DHT22;400;53.550;9.932;2023-02-01T08:29:17;6.60;99.90
837;DHT22;400;53.550;9.932;2023-02-01T08:31:49;6.70;99.90
837;DHT22;400;53.550;9.932;2023-02-01T08:34:17;6.60;99.90
837;DHT22;400;53.550;9.932;2023-02-01T08:36:44;6.70;99.90
837;DHT22;400;53.550;9.932;2023-02-01T08:39:13;6.80;99.90
837;DHT22;400;53.550;9.932;2023-02-01T08:41:47;6.70;99.90
837;DHT22;400;53.550;9.932;2023-02-01T08:44:37;6.70;99.90
837;DHT22;400;53.550;9.932;2023-02-01T08:47:06;6.60;99.90
837;DHT22;400;53.550;9.932;2023-02-01T08:49:33;6.70;99.90
837;DHT22;400;53.550;9.932;2023-02-01T08:52:00;6.80;99.90
837;DHT22;400;53.550;9.932;2023-02-01T08:54:31;6.80;99.90
837;DHT22;400;53.550;9.932;2023-02-01T08:57:16;6.80;99.90
837;DHT22;400;53.550;9.932;2023-02-01T08:59:48;6.80;99.90
837;DHT22;400;53.550;9.932;2023-02-01T09:02:18;6.90;99.90
837;DHT22;400;53.550;9.932;2023-02-01T09:04:45;6.90;99.90
837;DHT22;400;53.550;9.932;2023-02-01T09:07:15;6.90;99.90
837;DHT22;400;53.550;9.932;2023-02-01T09:09:45;6.90;99.90
837;DHT22;400;53.550;9.932;2023-02-01T09:12:16;6.90;99.90
837;DHT22;400;53.550;9.932;2023-02-01T09:14:47;6.90;99.90
837;DHT22;400;53.550;9.932;2023-02-01T09:17:29;6.90;99.90
837;DHT22;400;53.550;9.932;2023-02-01T09:19:56;7.00;99.90
837;DHT22;400;53.550;9.932;2023-02-01T09:22:23;6.90;99.90
837;DHT22;400;53.550;9.932;2023-02-01T09:24:53;7.10;99.90
837;DHT22;400;53.550;9.932;2023-02-01T09:27:24;7.00;99.90
837;DHT22;400;53.550;9.932;2023-02-01T09:29:54;6.90;99.90
837;DHT22;400;53.550;9.932;2023-02-01T09:32:26;6.80;99.90
837;DHT22;400;53.550;9.932;2023-02-01T09:35:14;6.90;99.90
837;DHT22;400;53.550;9.932;2023-02-01T09:37:43;6.90;99.90
837;DHT22;400;53.550;9.932;2023-02-01T09:40:14;6.90;99.90
837;DHT22;400;53.550;9.932;2023-02-01T09:45:51;6.90;99.90
837;DHT22;400;53.550;9.932;2023-02-01T09:48:27;6.90;99.90
837;DHT22;400;53.550;9.932;2023-02-01T09:51:00;7.00;99.90
837;DHT22;400;53.550;9.932;2023-02-01T09:53:34;7.20;99.90
837;DHT22;400;53.550;9.932;2023-02-01T09:56:10;7.20;99.90
837;DHT22;400;53.550;9.932;2023-02-01T09:58:49;7.20;99.90
837;DHT22;400;53.550;9.932;2023-02-01T10:01:21;7.30;99.90
837;DHT22;400;53.550;9.932;2023-02-01T10:03:49;7.30;99.90
837;DHT22;400;53.550;9.932;2023-02-01T10:06:38;7.30;99.90
837;DHT22;400;53.550;9.932;2023-02-01T10:09:20;7.30;99.90
837;DHT22;400;53.550;9.932;2023-02-01T10:12:12;7.40;99.90
837;DHT22;400;53.550;9.932;2023-02-01T10:14:54;7.40;99.90
837;DHT22;400;53.550;9.932;2023-02-01T10:17:33;7.40;99.90
837;DHT22;400;53.550;9.932;2023-02-01T10:20:11;7.40;99.90
837;DHT22;400;53.550;9.932;2023-02-01T10:22:45;7.50;99.90
837;DHT22;400;53.550;9.932;2023-02-01T10:25:22;7.50;99.90
837;DHT22;400;53.550;9.932;2023-02-01T10:27:50;7.50;99.90
837;DHT22;400;53.550;9.932;2023-02-01T10:30:27;7.50;99.90
837;DHT22;400;53.550;9.932;2023-02-01T10:33:00;7.40;99.90
837;DHT22;400;53.550;9.932;2023-02-01T10:35:33;7.30;99.90
837;DHT22;400;53.550;9.932;2023-02-01T10:38:04;7.30;99.90
837;DHT22;400;53.550;9.932;2023-02-01T10:40:40;7.20;99.90
837;DHT22;400;53.550;9.932;2023-02-01T10:43:10;7.30;99.90
837;DHT22;400;53.550;9.932;2023-02-01T10:45:58;7.30;99.90
837;DHT22;400;53.550;9.932;2023-02-01T10:48:35;7.40;99.90
837;DHT22;400;53.550;9.932;2023-02-01T10:51:10;7.30;99.90
837;DHT22;400;53.550;9.932;2023-02-01T10:53:42;7.40;99.90
837;DHT22;400;53.550;9.932;2023-02-01T10:56:18;7.50;99.90
837;DHT22;400;53.550;9.932;2023-02-01T10:58:51;7.40;99.90
837;DHT22;400;53.550;9.932;2023-02-01T11:01:43;7.50;99.90
837;DHT22;400;53.550;9.932;2023-02-01T11:04:32;7.40;99.90
837;DHT22;400;53.550;9.932;2023-02-01T11:07:24;7.30;99.90
837;DHT22;400;53.550;9.932;2023-02-01T11:10:40;7.20;99.90
837;DHT22;400;53.550;9.932;2023-02-01T11:13:20;7.40;99.90
837;DHT22;400;53.550;9.932;2023-02-01T11:15:56;7.50;99.90
837;DHT22;400;53.550;9.932;2023-02-01T11:21:06;7.40;99.90
837;DHT22;400;53.550;9.932;2023-02-01T11:23:40;7.40;99.90
837;DHT22;400;53.550;9.932;2023-02-01T11:26:14;7.50;99.90
837;DHT22;400;53.550;9.932;2023-02-01T11:28:56;7.50;99.90
837;DHT22;400;53.550;9.932;2023-02-01T11:31:28;7.50;99.90
837;DHT22;400;53.550;9.932;2023-02-01T11:34:06;7.60;99.90
837;DHT22;400;53.550;9.932;2023-02-01T11:36:45;7.60;99.90
837;DHT22;400;53.550;9.932;2023-02-01T11:39:26;7.50;99.90
837;DHT22;400;53.550;9.932;2023-02-01T11:42:02;7.60;99.90
837;DHT22;400;53.550;9.932;2023-02-01T11:44:43;7.50;99.90
837;DHT22;400;53.550;9.932;2023-02-01T11:47:26;7.70;99.90
837;DHT22;400;53.550;9.932;2023-02-01T11:49:59;7.70;99.90
837;DHT22;400;53.550;9.932;2023-02-01T11:52:43;7.60;99.90
837;DHT22;400;53.550;9.932;2023-02-01T11:55:37;7.60;99.90
837;DHT22;400;53.550;9.932;2023-02-01T11:58:35;7.30;99.90
837;DHT22;400;53.550;9.932;2023-02-01T12:01:23;7.20;99.90
837;DHT22;400;53.550;9.932;2023-02-01T12:07:28;7.20;99.90
837;DHT22;400;53.550;9.932;2023-02-01T12:10:15;7.10;99.90
837;DHT22;400;53.550;9.932;2023-02-01T12:13:10;7.10;99.90
837;DHT22;400;53.550;9.932;2023-02-01T12:15:58;7.20;99.90
837;DHT22;400;53.550;9.932;2023-02-01T12:19:02;7.10;99.90
837;DHT22;400;53.550;9.932;2023-02-01T12:21:47;7.10;99.90
837;DHT22;400;53.550;9.932;2023-02-01T12:24:38;7.10;99.90
837;DHT22;400;53.550;9.932;2023-02-01T12:27:41;6.80;99.90
837;DHT22;400;53.550;9.932;2023-02-01T12:30:38;6.80;99.90
837;DHT22;400;53.550;9.932;2023-02-01T12:33:18;6.80;99.90
837;DHT22;400;53.550;9.932;2023-02-01T12:36:01;6.70;99.90
837;DHT22;400;53.550;9.932;2023-02-01T12:39:00;6.50;99.90
837;DHT22;400;53.550;9.932;2023-02-01T12:41:52;6.30;99.90
837;DHT22;400;53.550;9.932;2023-02-01T12:44:59;6.40;99.90
837;DHT22;400;53.550;9.932;2023-02-01T12:47:50;6.30;99.90
837;DHT22;400;53.550;9.932;2023-02-01T12:50:22;6.10;99.90
837;DHT22;400;53.550;9.932;2023-02-01T12:53:00;6.20;99.90
837;DHT22;400;53.550;9.932;2023-02-01T12:55:41;5.90;99.90
837;DHT22;400;53.550;9.932;2023-02-01T12:58:17;5.90;99.90
837;DHT22;400;53.550;9.932;2023-02-01T13:00:49;5.90;99.90
837;DHT22;400;53.550;9.932;2023-02-01T13:03:26;5.90;99.90
837;DHT22;400;53.550;9.932;2023-02-01T13:06:00;5.90;99.90
837;DHT22;400;53.550;9.932;2023-02-01T13:08:41;5.90;99.90
837;DHT22;400;53.550;9.932;2023-02-01T13:11:16;6.10;99.90
837;DHT22;400;53.550;9.932;2023-02-01T13:14:00;6.10;99.90
837;DHT22;400;53.550;9.932;2023-02-01T13:16:34;6.10;99.90
837;DHT22;400;53.550;9.932;2023-02-01T13:19:10;6.10;99.90
837;DHT22;400;53.550;9.932;2023-02-01T13:21:53;6.20;99.90
837;DHT22;400;53.550;9.932;2023-02-01T13:24:31;6.40;99.90
837;DHT22;400;53.550;9.932;2023-02-01T13:27:04;6.50;99.90
837;DHT22;400;53.550;9.932;2023-02-01T13:29:50;6.50;99.90
837;DHT22;400;53.550;9.932;2023-02-01T13:32:38;6.60;99.90
837;DHT22;400;53.550;9.932;2023-02-01T13:42:27;6.90;99.90
837;DHT22;400;53.550;9.932;2023-02-01T13:45:31;7.00;99.90
837;DHT22;400;53.550;9.932;2023-02-01T13:48:24;6.90;99.90
837;DHT22;400;53.550;9.932;2023-02-01T13:51:00;6.50;99.90
837;DHT22;400;53.550;9.932;2023-02-01T13:53:33;6.50;99.90
837;DHT22;400;53.550;9.932;2023-02-01T13:56:05;6.50;99.90
837;DHT22;400;53.550;9.932;2023-02-01T13:58:37;6.60;99.90
837;DHT22;400;53.550;9.932;2023-02-01T14:04:45;6.40;99.90
837;DHT22;400;53.550;9.932;2023-02-01T14:07:19;6.50;99.90
837;DHT22;400;53.550;9.932;2023-02-01T14:09:51;6.60;99.90
837;DHT22;400;53.550;9.932;2023-02-01T14:12:47;6.70;99.90
837;DHT22;400;53.550;9.932;2023-02-01T14:15:23;6.90;99.90
837;DHT22;400;53.550;9.932;2023-02-01T14:17:52;6.80;99.90
837;DHT22;400;53.550;9.932;2023-02-01T14:20:44;6.80;99.90
837;DHT22;400;53.550;9.932;2023-02-01T14:23:28;6.80;99.90
837;DHT22;400;53.550;9.932;2023-02-01T14:26:08;6.80;99.90
837;DHT22;400;53.550;9.932;2023-02-01T14:28:46;6.80;99.90
837;DHT22;400;53.550;9.932;2023-02-01T14:34:23;6.80;99.90
837;DHT22;400;53.550;9.932;2023-02-01T14:36:56;6.70;99.90
837;DHT22;400;53.550;9.932;2023-02-01T14:39:50;6.60;99.90
837;DHT22;400;53.550;9.932;2023-02-01T14:42:28;6.40;99.90
837;DHT22;400;53.550;9.932;2023-02-01T14:48:43;6.10;99.90
837;DHT22;400;53.550;9.932;2023-02-01T14:51:18;5.90;99.90
837;DHT22;400;53.550;9.932;2023-02-01T14:53:58;5.90;99.90
837;DHT22;400;53.550;9.932;2023-02-01T14:56:26;5.90;99.90
837;DHT22;400;53.550;9.932;2023-02-01T14:59:00;6.00;99.90
837;DHT22;400;53.550;9.932;2023-02-01T15:01:33;6.10;99.90
837;DHT22;400;53.550;9.932;2023-02-01T15:04:27;5.90;99.90
837;DHT22;400;53.550;9.932;2023-02-01T15:06:57;5.90;99.90
837;DHT22;400;53.550;9.932;2023-02-01T15:09:30;6.00;99.90
837;DHT22;400;53.550;9.932;2023-02-01T15:12:03;5.90;99.90
837;DHT22;400;53.550;9.932;2023-02-01T15:14:34;6.00;99.90
837;DHT22;400;53.550;9.932;2023-02-01T15:17:18;6.00;99.90
837;DHT22;400;53.550;9.932;2023-02-01T15:19:54;6.10;99.90
837;DHT22;400;53.550;9.932;2023-02-01T15:22:21;6.00;99.90
837;DHT22;400;53.550;9.932;2023-02-01T15:24:56;5.90;99.90
837;DHT22;400;53.550;9.932;2023-02-01T15:27:24;5.80;99.90
837;DHT22;400;53.550;9.932;2023-02-01T15:29:53;5.90;99.90
837;DHT22;400;53.550;9.932;2023-02-01T15:32:30;6.00;99.90
837;DHT22;400;53.550;9.932;2023-02-01T15:34:59;5.80;99.90
837;DHT22;400;53.550;9.932;2023-02-01T15:37:33;5.90;99.90
837;DHT22;400;53.550;9.932;2023-02-01T15:40:05;5.80;99.90
837;DHT22;400;53.550;9.932;2023-02-01T15:42:51;5.90;99.90
837;DHT22;400;53.550;9.932;2023-02-01T15:45:25;6.00;99.90
837;DHT22;400;53.550;9.932;2023-02-01T15:47:57;5.90;99.90
837;DHT22;400;53.550;9.932;2023-02-01T15:50:32;5.80;99.90
837;DHT22;400;53.550;9.932;2023-02-01T15:52:59;5.80;99.90
837;DHT22;400;53.550;9.932;2023-02-01T15:55:33;5.80;99.90
837;DHT22;400;53.550;9.932;2023-02-01T15:58:14;5.90;99.90
837;DHT22;400;53.550;9.932;2023-02-01T16:00:44;5.80;99.90
837;DHT22;400;53.550;9.932;2023-02-01T16:03:28;5.90;99.90
837;DHT22;400;53.550;9.932;2023-02-01T16:06:05;6.00;99.90
837;DHT22;400;53.550;9.932;2023-02-01T16:08:36;6.00;99.90
837;DHT22;400;53.550;9.932;2023-02-01T16:11:23;6.00;99.90
837;DHT22;400;53.550;9.932;2023-02-01T16:13:54;5.90;99.90
837;DHT22;400;53.550;9.932;2023-02-01T16:16:21;6.00;99.90
837;DHT22;400;53.550;9.932;2023-02-01T16:18:51;6.10;99.90
837;DHT22;400;53.550;9.932;2023-02-01T16:21:33;6.10;99.90
837;DHT22;400;53.550;9.932;2023-02-01T16:24:03;6.10;99.90
837;DHT22;400;53.550;9.932;2023-02-01T16:26:31;6.10;99.90
837;DHT22;400;53.550;9.932;2023-02-01T16:28:58;6.20;99.90
837;DHT22;400;53.550;9.932;2023-02-01T16:31:30;6.10;99.90
837;DHT22;400;53.550;9.932;2023-02-01T16:33:57;6.20;99.90
837;DHT22;400;53.550;9.932;2023-02-01T16:36:27;6.20;99.90
837;DHT22;400;53.550;9.932;2023-02-01T16:38:59;6.30;99.90
837;DHT22;400;53.550;9.932;2023-02-01T16:41:33;6.40;99.90
837;DHT22;400;53.550;9.932;2023-02-01T16:44:06;6.40;99.90
837;DHT22;400;53.550;9.932;2023-02-01T16:46:39;6.50;99.90
837;DHT22;400;53.550;9.932;2023-02-01T16:49:19;6.50;99.90
837;DHT22;400;53.550;9.932;2023-02-01T16:51:58;6.50;99.90
837;DHT22;400;53.550;9.932;2023-02-01T16:54:32;6.50;99.90
837;DHT22;400;53.550;9.932;2023-02-01T16:57:10;6.40;99.90
837;DHT22;400;53.550;9.932;2023-02-01T16:59:47;6.40;99.90
837;DHT22;400;53.550;9.932;2023-02-01T17:02:20;6.40;99.90
837;DHT22;400;53.550;9.932;2023-02-01T17:04:55;6.40;99.90
837;DHT22;400;53.550;9.932;2023-02-01T17:07:28;6.50;99.90
837;DHT22;400;53.550;9.932;2023-02-01T17:10:00;6.50;99.90
837;DHT22;400;53.550;9.932;2023-02-01T17:12:41;6.50;99.90
837;DHT22;400;53.550;9.932;2023-02-01T17:18:00;6.50;99.90
837;DHT22;400;53.550;9.932;2023-02-01T17:20:37;6.60;99.90
837;DHT22;400;53.550;9.932;2023-02-01T17:23:08;6.60;99.90
837;DHT22;400;53.550;9.932;2023-02-01T17:25:38;6.70;99.90
837;DHT22;400;53.550;9.932;2023-02-01T17:28:07;6.70;99.90
837;DHT22;400;53.550;9.932;2023-02-01T17:30:35;6.70;99.90
837;DHT22;400;53.550;9.932;2023-02-01T17:33:17;6.60;99.90
837;DHT22;400;53.550;9.932;2023-02-01T17:35:50;6.60;99.90
837;DHT22;400;53.550;9.932;2023-02-01T17:38:22;6.70;99.90
837;DHT22;400;53.550;9.932;2023-02-01T17:40:50;6.70;99.90
837;DHT22;400;53.550;9.932;2023-02-01T17:43:21;6.70;99.90
837;DHT22;400;53.550;9.932;2023-02-01T17:45:53;6.70;99.90
837;DHT22;400;53.550;9.932;2023-02-01T17:48:21;6.70;99.90
837;DHT22;400;53.550;9.932;2023-02-01T17:50:49;6.60;99.90
837;DHT22;400;53.550;9.932;2023-02-01T17:53:29;6.70;99.90
837;DHT22;400;53.550;9.932;2023-02-01T17:56:00;6.70;99.90
837;DHT22;400;53.550;9.932;2023-02-01T17:58:27;6.70;99.90
837;DHT22;400;53.550;9.932;2023-02-01T18:00:58;6.70;99.90
837;DHT22;400;53.550;9.932;2023-02-01T18:03:32;6.70;99.90
837;DHT22;400;53.550;9.932;2023-02-01T18:06:12;6.70;99.90
837;DHT22;400;53.550;9.932;2023-02-01T18:08:42;6.70;99.90
837;DHT22;400;53.550;9.932;2023-02-01T18:11:14;6.60;99.90
837;DHT22;400;53.550;9.932;2023-02-01T18:13:42;6.70;99.90
837;DHT22;400;53.550;9.932;2023-02-01T18:16:17;6.70;99.90
837;DHT22;400;53.550;9.932;2023-02-01T18:18:45;6.70;99.90